Aviation Digital Data Service (ADDS)

Output produced by METARs form (2301 UTC 22 October 2014)
found at http://www.aviationweather.gov/adds/metars/
 
KPIA 221730Z 2218/2318 15007KT P6SM SKC 
     FM230600 14004KT P6SM BKN250